Aeroporto :
LOGIN :

Iscrizione | Disclaimer

   EN    FR    IT 

 










Sommario :    VFR   VFR Marginale   IFR   IFR Intensivo   IFR Molto Intensivo
Visibilità : 
Base nubi : 
>= 8 km
>= 3000ft
5 / 8 km
1000 / 3000 ft
1500m / 5 km
500 / 1000 ft
800 / 1500m
200 / 500 ft
< 800m
< 200 ft
Simboli :   Temporali  Nebbia  Neve Forte  Precipitazioni Forti  Vento > 20 kt
SIGMETs :   Varie  Temporali  Ghiacco  Turbolenza  Onda orograficha  Ceneri Vulcaniche







- Altitudine del aeroporto : 124 ft
- Codice IATA : NHT
- Carte del aeroporto


EGWU - RAF Northolt

ULTIMO METAR :
  • 270250Z AUTO 08011KT 9999 // OVC012/// 14/11 Q1029

METARs OBSOLETI :
  • 270150Z AUTO 06013KT 9999 // OVC012/// 14/11 Q1029
  • 270050Z AUTO 07012KT 9999 // OVC012/// 14/11 Q1029

TAF TAF EGWU
Valido dal 26 a 21 ore il 27 a 15 ore UTC


261927Z 2621/2715 06012KT 9999 BKN015
BECMG 2621/2624 BKN012
BECMG 2707/2709 FEW025
Nessun NOTAM noto per questo aeroporto.
4 SIGMETs conosciuti per la FIR London (EGTT) :
 
Temporali affogati
EGTT SIGMET 05 VALID 270400/270700 EGRR
EGTT LONDON FIR EMBD TS FCST WI N4850 W00800 - N5008 W00800 - N4947 W00659 - N4909 W00628 - N4908 W00629 - N4850 W00800 TOP FL380 MOV NW 20KT NC=
Turbolenza severa
EGTT SIGMET 04 VALID 270400/270800 EGRR
EGTT LONDON FIR SEV TURB FCST WI N5003 W00353 - N4944 W00627 - N5013 W00629 - N5057 W00416 - N5003 W00353 SFC/FL060 STNR WKN=
Temporali affogati
EGTT SIGMET 03 VALID 270200/270400 EGRR
EGTT LONDON FIR EMBD TS FCST WI N4850 W00800 - N4955 W00800 - N4900 W00706 - N4850 W00800 TOP FL380 STNR NC=
Turbolenza severa
EGTT SIGMET 01 VALID 270010/270400 EGRR
EGTT LONDON FIR SEV TURB FCST WI N5033 W00347 - N4950 W00345 - N4933 W00800 - N5028 W00800 - N5033 W00347 SFC/FL060 STNR WKN=



MetMap, La meteo Aeronautica in un colpo d'occhio ! - Copyright ORBIFLY Dicembre 2007 - Disclaimer

ORBIFLY MET'MAP TEAM :

Programmazione e sviluppo : Alexandra Zaïnal
Concezione e sviluppo : Baudouin d'Aumeries
Co-Programmazione e sviluppo : Marc-Olivier Méhu
Supporto tecnico e logistico : Manuel Goepfert
Aiuto per la traduzione : Arnaldo La Scala

Contatto : metmap@orbifly.com




FONTI E CREDITI :

   NOAA